createdAt,value
2019-02-10T00:00:42.077Z,37.17
2019-02-10T00:03:13.510Z,38.77
2019-02-10T00:05:46.147Z,40.20
2019-02-10T00:08:18.680Z,40.10
2019-02-10T00:10:50.906Z,38.43
2019-02-10T00:13:37.377Z,38.63
2019-02-10T00:16:17.804Z,39.00
2019-02-10T00:18:49.556Z,39.27
2019-02-10T00:21:20.833Z,39.03
2019-02-10T00:23:52.512Z,37.43
2019-02-10T00:26:23.723Z,37.97
2019-02-10T00:28:54.633Z,37.93
2019-02-10T00:31:26.725Z,40.30
2019-02-10T00:33:58.716Z,40.63
2019-02-10T00:36:33.363Z,38.73
2019-02-10T00:39:05.098Z,39.03
2019-02-10T00:41:36.616Z,37.67
2019-02-10T00:44:08.204Z,39.87
2019-02-10T00:46:39.805Z,37.27
2019-02-10T00:49:11.495Z,34.97
2019-02-10T00:51:43.139Z,38.00
2019-02-10T00:54:14.551Z,37.07
2019-02-10T00:56:46.202Z,35.37
2019-02-10T00:59:17.441Z,38.30
2019-02-10T01:01:48.653Z,38.07
2019-02-10T01:04:20.181Z,37.13
2019-02-10T01:06:51.070Z,36.97
2019-02-10T01:09:22.346Z,36.97
2019-02-10T01:11:53.494Z,37.20
2019-02-10T01:14:25.593Z,35.03
2019-02-10T01:16:56.875Z,35.80
2019-02-10T01:19:28.466Z,34.20
2019-02-10T01:21:59.680Z,34.33
2019-02-10T01:24:31.109Z,35.60
2019-02-10T01:27:02.603Z,37.23
2019-02-10T01:29:33.964Z,36.93
2019-02-10T01:32:04.869Z,35.33
2019-02-10T01:34:36.210Z,35.60
2019-02-10T01:37:08.493Z,36.07
2019-02-10T01:39:39.223Z,35.10
2019-02-10T01:42:09.937Z,34.00
2019-02-10T01:44:40.654Z,34.80
2019-02-10T01:47:12.275Z,32.37
2019-02-10T01:49:43.730Z,32.70
2019-02-10T01:52:14.593Z,34.50
2019-02-10T01:54:45.257Z,33.57
2019-02-10T01:57:16.139Z,34.23
2019-02-10T01:59:46.936Z,34.07
2019-02-10T02:02:17.802Z,33.70
2019-02-10T02:04:48.663Z,31.97
2019-02-10T02:07:19.678Z,31.93
2019-02-10T02:09:50.376Z,29.97
2019-02-10T02:12:21.018Z,32.87
2019-02-10T02:14:51.775Z,32.67
2019-02-10T02:17:22.822Z,31.63
2019-02-10T02:19:54.244Z,31.43
2019-02-10T02:22:25.782Z,31.50
2019-02-10T02:24:56.469Z,30.00
2019-02-10T02:27:27.115Z,31.40
2019-02-10T02:29:58.211Z,32.93
2019-02-10T02:32:29.307Z,31.37
2019-02-10T02:35:00.584Z,31.83
2019-02-10T02:37:31.815Z,29.77
2019-02-10T02:40:03.356Z,29.30
2019-02-10T02:42:34.623Z,30.60
2019-02-10T02:45:07.667Z,30.67
2019-02-10T02:47:37.898Z,29.73
2019-02-10T02:50:11.226Z,30.80
2019-02-10T02:52:42.133Z,29.40
2019-02-10T02:55:13.349Z,29.50
2019-02-10T02:57:44.069Z,29.40
2019-02-10T03:00:14.660Z,29.70
2019-02-10T03:02:45.612Z,29.13
2019-02-10T03:05:16.397Z,28.37
2019-02-10T03:07:48.134Z,30.03
2019-02-10T03:10:19.589Z,30.60
2019-02-10T03:12:50.421Z,29.70
2019-02-10T03:15:21.414Z,29.23
2019-02-10T03:17:52.129Z,30.23
2019-02-10T03:20:22.788Z,30.40
2019-02-10T03:22:54.633Z,29.87
2019-02-10T03:25:26.464Z,29.90
2019-02-10T03:27:57.820Z,31.10
2019-02-10T03:30:29.338Z,30.17
2019-02-10T03:33:00.794Z,30.93
2019-02-10T03:35:31.760Z,29.67
2019-02-10T03:38:02.827Z,29.63
2019-02-10T03:40:35.169Z,30.07
2019-02-10T03:43:06.418Z,30.37
2019-02-10T03:45:37.297Z,28.47
2019-02-10T03:48:08.908Z,27.97
2019-02-10T03:50:40.291Z,27.83
2019-02-10T03:53:11.401Z,28.37
2019-02-10T03:55:43.075Z,29.60
2019-02-10T03:58:14.714Z,27.33
2019-02-10T04:00:46.486Z,28.23
2019-02-10T04:03:18.084Z,32.37
2019-02-10T04:05:49.455Z,28.63
2019-02-10T04:08:21.465Z,29.63
2019-02-10T04:10:53.221Z,28.10
2019-02-10T04:13:24.821Z,29.03
2019-02-10T04:15:56.534Z,29.63
2019-02-10T04:18:28.092Z,29.13
2019-02-10T04:20:58.679Z,27.43
2019-02-10T04:23:29.570Z,29.73
2019-02-10T04:26:00.900Z,30.63
2019-02-10T04:28:32.219Z,29.53
2019-02-10T04:31:03.894Z,46.70
2019-02-10T04:33:34.936Z,33.57
2019-02-10T04:36:05.620Z,33.53
2019-02-10T04:38:37.288Z,32.57
2019-02-10T04:41:08.278Z,31.80
2019-02-10T04:43:39.521Z,33.53
2019-02-10T04:46:10.442Z,33.93
2019-02-10T04:48:41.272Z,32.10
2019-02-10T04:51:12.231Z,33.37
2019-02-10T04:53:43.213Z,33.17
2019-02-10T04:56:19.637Z,61.17
2019-02-10T04:58:50.597Z,34.40
2019-02-10T05:01:22.009Z,31.37
2019-02-10T05:03:53.307Z,34.30
2019-02-10T05:06:43.647Z,30.43
2019-02-10T05:09:15.234Z,31.80
2019-02-10T05:11:46.544Z,30.83
2019-02-10T05:14:17.793Z,28.37
2019-02-10T05:16:49.376Z,29.20
2019-02-10T05:19:20.918Z,29.60
2019-02-10T05:21:52.326Z,28.60
2019-02-10T05:24:23.760Z,30.67
2019-02-10T05:26:55.009Z,29.50
2019-02-10T05:29:26.019Z,29.90
2019-02-10T05:31:57.149Z,28.43
2019-02-10T05:34:30.451Z,30.70
2019-02-10T05:37:01.183Z,49.57
2019-02-10T05:39:32.479Z,99.03
2019-02-10T05:42:04.034Z,31.77
2019-02-10T05:44:35.644Z,30.63
2019-02-10T05:47:07.677Z,28.03
2019-02-10T05:49:39.319Z,29.27
2019-02-10T05:52:12.299Z,29.67
2019-02-10T05:54:43.637Z,28.80
2019-02-10T05:57:14.699Z,29.97
2019-02-10T05:59:46.025Z,30.10
2019-02-10T06:02:28.781Z,29.33
2019-02-10T06:05:12.986Z,30.10
2019-02-10T06:07:44.168Z,29.97
2019-02-10T06:10:15.858Z,29.30
2019-02-10T06:12:47.209Z,30.80
2019-02-10T06:15:19.020Z,30.77
2019-02-10T06:17:49.534Z,29.17
2019-02-10T06:20:20.228Z,30.50
2019-02-10T06:22:50.806Z,34.13
2019-02-10T06:25:21.496Z,32.67
2019-02-10T06:27:52.181Z,35.20
2019-02-10T06:30:22.842Z,32.73
2019-02-10T06:32:53.569Z,34.20
2019-02-10T06:35:24.435Z,77.57
2019-02-10T06:37:54.937Z,40.50
2019-02-10T06:40:25.873Z,34.93
2019-02-10T06:42:56.771Z,35.50
2019-02-10T06:45:27.533Z,37.47
2019-02-10T06:48:01.141Z,37.43
2019-02-10T06:50:33.161Z,36.47
2019-02-10T06:53:23.468Z,35.13
2019-02-10T06:55:54.053Z,36.80
2019-02-10T06:58:25.346Z,37.27
2019-02-10T07:01:33.026Z,38.67
2019-02-10T07:04:19.742Z,39.47
2019-02-10T07:06:50.444Z,43.50
2019-02-10T07:09:21.153Z,40.27
2019-02-10T07:11:51.793Z,42.27
2019-02-10T07:14:31.584Z,42.77
2019-02-10T07:17:27.974Z,44.53
2019-02-10T07:20:24.314Z,45.87
2019-02-10T07:23:40.711Z,50.20
2019-02-10T07:26:22.014Z,48.23
2019-02-10T07:29:13.674Z,50.37
2019-02-10T07:32:02.294Z,51.00
2019-02-10T07:35:05.944Z,48.63
2019-02-10T07:37:48.770Z,46.67
2019-02-10T07:41:05.927Z,49.23
2019-02-10T07:44:11.713Z,49.80
2019-02-10T07:47:07.903Z,45.47
2019-02-10T07:50:20.759Z,46.57
2019-02-10T07:53:16.369Z,45.80
2019-02-10T07:56:28.899Z,44.37
2019-02-10T07:59:21.809Z,41.27
2019-02-10T08:02:31.943Z,39.80
2019-02-10T08:05:32.423Z,38.47
2019-02-10T08:08:46.445Z,36.53
2019-02-10T08:11:38.879Z,35.23
2019-02-10T08:14:36.002Z,37.03
2019-02-10T08:17:59.237Z,37.43
2019-02-10T08:21:11.220Z,37.00
2019-02-10T08:24:37.815Z,35.53
2019-02-10T08:27:26.976Z,34.57
2019-02-10T08:30:17.009Z,35.73
2019-02-10T08:33:30.286Z,35.77
2019-02-10T08:36:29.826Z,34.63
2019-02-10T08:39:56.068Z,35.23
2019-02-10T08:42:51.124Z,33.03
2019-02-10T08:45:49.006Z,36.93
2019-02-10T08:49:09.431Z,35.17
2019-02-10T08:52:39.205Z,36.00
2019-02-10T08:55:09.954Z,36.17
2019-02-10T08:57:40.507Z,34.80
2019-02-10T09:00:11.985Z,33.80
2019-02-10T09:02:43.137Z,32.00
2019-02-10T09:05:13.977Z,35.40
2019-02-10T09:07:44.904Z,33.40
2019-02-10T09:10:15.900Z,35.20
2019-02-10T09:12:46.775Z,34.93
2019-02-10T09:15:17.767Z,34.50
2019-02-10T09:17:48.741Z,33.40
2019-02-10T09:20:19.855Z,34.07
2019-02-10T09:22:50.785Z,34.83
2019-02-10T09:25:21.528Z,36.63
2019-02-10T09:27:52.401Z,37.13
2019-02-10T09:30:23.220Z,39.13
2019-02-10T09:32:53.958Z,38.40
2019-02-10T09:35:25.086Z,39.53
2019-02-10T09:37:55.758Z,38.57
2019-02-10T09:40:26.684Z,40.30
2019-02-10T09:42:57.601Z,40.13
2019-02-10T09:45:28.451Z,39.10
2019-02-10T09:47:59.087Z,40.40
2019-02-10T09:50:29.843Z,42.47
2019-02-10T09:53:00.769Z,42.37
2019-02-10T09:55:32.253Z,39.87
2019-02-10T09:58:03.817Z,39.47
2019-02-10T10:00:34.946Z,41.83
2019-02-10T10:03:06.111Z,40.47
2019-02-10T10:05:37.426Z,41.47
2019-02-10T10:08:08.913Z,39.63
2019-02-10T10:10:40.242Z,39.63
2019-02-10T10:13:11.135Z,40.00
2019-02-10T10:15:43.447Z,38.70
2019-02-10T10:18:14.413Z,40.73
2019-02-10T10:21:09.184Z,40.10
2019-02-10T10:23:39.930Z,37.30
2019-02-10T10:26:11.507Z,39.10
2019-02-10T10:28:42.334Z,38.90
2019-02-10T10:31:12.998Z,39.50
2019-02-10T10:33:43.665Z,40.73
2019-02-10T10:36:14.249Z,37.47
2019-02-10T10:38:44.804Z,36.90
2019-02-10T10:41:15.611Z,38.47
2019-02-10T10:43:46.400Z,38.00
2019-02-10T10:46:17.221Z,34.73
2019-02-10T10:48:48.119Z,37.03
2019-02-10T10:51:18.936Z,35.80
2019-02-10T10:53:49.551Z,32.30
2019-02-10T10:56:20.148Z,34.67
2019-02-10T10:58:50.766Z,32.80
2019-02-10T11:01:25.382Z,32.77
2019-02-10T11:03:54.406Z,31.67
2019-02-10T11:06:25.503Z,29.70
2019-02-10T11:08:56.234Z,28.70
2019-02-10T11:11:27.485Z,29.37
2019-02-10T11:14:00.013Z,33.23
2019-02-10T11:16:30.642Z,32.67
2019-02-10T11:19:02.666Z,34.57
2019-02-10T11:21:33.302Z,32.60
2019-02-10T11:24:04.315Z,32.23
2019-02-10T11:26:35.206Z,32.77
2019-02-10T11:29:10.447Z,32.73
2019-02-10T11:31:41.013Z,32.90
2019-02-10T11:34:11.893Z,31.87
2019-02-10T11:36:42.522Z,28.77
2019-02-10T11:39:13.944Z,33.00
2019-02-10T11:41:44.624Z,30.60
2019-02-10T11:44:15.321Z,32.00
2019-02-10T11:46:45.899Z,28.67
2019-02-10T11:49:19.653Z,33.27
2019-02-10T11:51:50.291Z,31.37
2019-02-10T11:54:21.028Z,30.93
2019-02-10T11:56:51.644Z,35.00
2019-02-10T11:59:22.177Z,32.00
2019-02-10T12:01:53.206Z,33.90
2019-02-10T12:04:24.211Z,31.37
2019-02-10T12:06:55.090Z,29.13
2019-02-10T12:09:26.321Z,29.30
2019-02-10T12:12:00.233Z,29.00
2019-02-10T12:14:31.150Z,29.73
2019-02-10T12:17:01.656Z,29.67
2019-02-10T12:19:32.256Z,27.93
2019-02-10T12:22:02.898Z,28.60
2019-02-10T12:24:33.536Z,27.93
2019-02-10T12:27:04.474Z,28.80
2019-02-10T12:29:35.289Z,27.90
2019-02-10T12:32:06.077Z,28.37
2019-02-10T12:34:36.793Z,26.30
2019-02-10T12:37:07.684Z,27.60
2019-02-10T12:39:38.349Z,26.83
2019-02-10T12:42:09.340Z,27.27
2019-02-10T12:44:39.896Z,27.47
2019-02-10T12:47:10.405Z,26.43
2019-02-10T12:49:41.085Z,26.57
2019-02-10T12:52:11.795Z,26.77
2019-02-10T12:54:42.416Z,26.90
2019-02-10T12:57:12.967Z,25.97
2019-02-10T12:59:43.534Z,26.73
2019-02-10T13:02:14.209Z,26.33
2019-02-10T13:04:44.988Z,27.43
2019-02-10T13:07:15.627Z,27.27
2019-02-10T13:09:46.272Z,26.13
2019-02-10T13:12:16.886Z,27.03
2019-02-10T13:14:47.589Z,26.67
2019-02-10T13:17:18.048Z,25.43
2019-02-10T13:19:48.648Z,24.97
2019-02-10T13:22:19.345Z,24.93
2019-02-10T13:24:50.063Z,27.33
2019-02-10T13:27:20.954Z,27.70
2019-02-10T13:29:51.627Z,28.07
2019-02-10T13:32:22.213Z,28.07
2019-02-10T13:34:52.936Z,28.90
2019-02-10T13:37:23.514Z,27.77
2019-02-10T13:39:54.162Z,27.93
2019-02-10T13:42:24.850Z,30.13
2019-02-10T13:44:55.551Z,30.30
2019-02-10T13:47:26.081Z,28.27
2019-02-10T13:49:56.723Z,28.97
2019-02-10T13:52:27.323Z,26.83
2019-02-10T13:54:58.142Z,26.77
2019-02-10T13:57:28.731Z,28.67
2019-02-10T13:59:59.314Z,27.07
2019-02-10T14:02:30.083Z,27.63
2019-02-10T14:05:00.756Z,27.63
2019-02-10T14:07:31.326Z,26.30
2019-02-10T14:10:02.000Z,24.37
2019-02-10T14:12:32.680Z,24.63
2019-02-10T14:15:03.377Z,24.60
2019-02-10T14:17:33.929Z,25.27
2019-02-10T14:20:04.725Z,26.90
2019-02-10T14:22:35.232Z,25.37
2019-02-10T14:25:06.088Z,25.77
2019-02-10T14:27:36.989Z,26.57
2019-02-10T14:30:10.403Z,26.67
2019-02-10T14:32:41.060Z,25.20
2019-02-10T14:35:11.639Z,26.00
2019-02-10T14:37:42.164Z,26.20
2019-02-10T14:40:14.788Z,24.93
2019-02-10T14:42:45.487Z,25.33
2019-02-10T14:45:16.123Z,24.97
2019-02-10T14:47:46.741Z,24.83
2019-02-10T14:50:18.584Z,25.37
2019-02-10T14:52:49.238Z,25.63
2019-02-10T14:55:19.889Z,26.97
2019-02-10T14:57:50.394Z,25.43
2019-02-10T15:00:21.060Z,25.87
2019-02-10T15:02:51.767Z,24.97
2019-02-10T15:05:22.412Z,25.63
2019-02-10T15:07:53.034Z,24.63
2019-02-10T15:10:23.768Z,25.90
2019-02-10T15:12:54.425Z,25.20
2019-02-10T15:15:25.287Z,25.40
2019-02-10T15:17:56.153Z,26.63
2019-02-10T15:20:27.108Z,26.00
2019-02-10T15:22:58.595Z,25.47
2019-02-10T15:25:29.497Z,26.67
2019-02-10T15:28:00.280Z,24.90
2019-02-10T15:30:31.122Z,26.23
2019-02-10T15:33:01.924Z,25.33
2019-02-10T15:35:34.039Z,26.03
2019-02-10T15:38:06.467Z,25.87
2019-02-10T15:40:37.815Z,25.80
2019-02-10T15:43:09.454Z,25.30
2019-02-10T15:45:40.366Z,25.63
2019-02-10T15:48:11.077Z,25.27
2019-02-10T15:50:42.087Z,25.27
2019-02-10T15:53:13.055Z,25.13
2019-02-10T15:55:43.613Z,25.23
2019-02-10T15:58:14.220Z,25.80
2019-02-10T16:00:44.951Z,26.90
2019-02-10T16:03:15.651Z,27.53
2019-02-10T16:05:46.334Z,27.77
2019-02-10T16:08:17.071Z,29.17
2019-02-10T16:10:47.689Z,27.97
2019-02-10T16:13:18.489Z,26.47
2019-02-10T16:15:49.142Z,26.87
2019-02-10T16:18:19.685Z,29.03
2019-02-10T16:20:50.312Z,30.70
2019-02-10T16:23:20.888Z,30.57
2019-02-10T16:25:51.484Z,31.63
2019-02-10T16:28:22.113Z,30.90
2019-02-10T16:30:52.989Z,40.67
2019-02-10T16:33:23.575Z,38.10
2019-02-10T16:35:54.175Z,32.83
2019-02-10T16:38:25.131Z,36.20
2019-02-10T16:40:55.689Z,33.97
2019-02-10T16:43:26.720Z,38.23
2019-02-10T16:45:57.331Z,36.73
2019-02-10T16:48:27.859Z,33.00
2019-02-10T16:50:58.733Z,33.00
2019-02-10T16:53:29.464Z,36.33
2019-02-10T16:56:00.057Z,36.83
2019-02-10T16:58:30.645Z,33.03
2019-02-10T17:01:01.259Z,32.97
2019-02-10T17:03:31.817Z,32.23
2019-02-10T17:06:02.474Z,35.00
2019-02-10T17:08:33.072Z,32.17
2019-02-10T17:11:03.687Z,31.43
2019-02-10T17:13:34.377Z,30.53
2019-02-10T17:16:05.474Z,31.47
2019-02-10T17:18:36.189Z,31.00
2019-02-10T17:21:07.421Z,29.53
2019-02-10T17:23:38.181Z,30.83
2019-02-10T17:26:10.011Z,30.17
2019-02-10T17:28:40.702Z,28.93
2019-02-10T17:31:12.392Z,28.83
2019-02-10T17:33:43.141Z,29.57
2019-02-10T17:36:13.760Z,27.90
2019-02-10T17:38:44.389Z,28.83
2019-02-10T17:41:22.827Z,29.70
2019-02-10T17:43:54.692Z,30.73
2019-02-10T17:46:25.412Z,30.90
2019-02-10T17:48:56.096Z,31.10
2019-02-10T17:51:26.759Z,33.37
2019-02-10T17:53:57.488Z,31.87
2019-02-10T17:56:29.236Z,35.67
2019-02-10T17:58:59.836Z,35.40
2019-02-10T18:01:30.532Z,34.00
2019-02-10T18:04:01.297Z,35.87
2019-02-10T18:06:31.900Z,34.80
2019-02-10T18:09:02.976Z,36.10
2019-02-10T18:11:34.131Z,38.27
2019-02-10T18:14:09.918Z,37.87
2019-02-10T18:16:59.404Z,37.87
2019-02-10T18:19:51.845Z,39.63
2019-02-10T18:22:39.912Z,39.63
2019-02-10T18:25:25.982Z,39.33
2019-02-10T18:28:30.838Z,36.67
2019-02-10T18:31:17.738Z,37.83
2019-02-10T18:33:59.809Z,37.30
2019-02-10T18:36:47.276Z,40.53
2019-02-10T18:39:25.872Z,42.87
2019-02-10T18:42:20.788Z,41.27
2019-02-10T18:45:13.435Z,40.63
2019-02-10T18:47:58.461Z,41.33
2019-02-10T18:50:48.924Z,42.20
2019-02-10T18:53:41.427Z,40.53
2019-02-10T18:56:45.925Z,39.33
2019-02-10T18:59:35.437Z,39.43
2019-02-10T19:02:23.617Z,38.70
2019-02-10T19:05:13.101Z,37.07
2019-02-10T19:08:01.333Z,37.73
2019-02-10T19:10:59.819Z,35.17
2019-02-10T19:13:48.041Z,35.37
2019-02-10T19:16:35.403Z,34.63
2019-02-10T19:19:23.919Z,37.43
2019-02-10T19:22:22.417Z,36.27
2019-02-10T19:25:06.112Z,34.90
2019-02-10T19:27:56.003Z,35.73
2019-02-10T19:30:48.980Z,35.47
2019-02-10T19:33:50.440Z,33.70
2019-02-10T19:36:51.943Z,33.20
2019-02-10T19:39:44.400Z,34.23
2019-02-10T19:42:43.616Z,33.83
2019-02-10T19:45:48.311Z,39.03
2019-02-10T19:48:32.381Z,37.17
2019-02-10T19:51:27.237Z,38.57
2019-02-10T19:54:28.970Z,39.73
2019-02-10T19:57:18.376Z,38.03
2019-02-10T20:00:04.609Z,38.87
2019-02-10T20:03:01.321Z,38.20
2019-02-10T20:05:56.834Z,38.30
2019-02-10T20:08:46.293Z,37.53
2019-02-10T20:11:44.877Z,37.63
2019-02-10T20:14:52.951Z,38.17
2019-02-10T20:17:54.363Z,40.27
2019-02-10T20:20:34.044Z,39.57
2019-02-10T20:23:23.816Z,41.83
2019-02-10T20:26:16.227Z,40.80
2019-02-10T20:29:08.029Z,43.10
2019-02-10T20:31:57.742Z,45.80
2019-02-10T20:34:46.378Z,43.53
2019-02-10T20:37:42.294Z,44.33
2019-02-10T20:40:41.586Z,46.50
2019-02-10T20:43:31.357Z,46.43
2019-02-10T20:46:09.762Z,49.23
2019-02-10T20:49:12.213Z,47.80
2019-02-10T20:52:01.697Z,46.77
2019-02-10T20:54:47.414Z,47.70
2019-02-10T20:57:48.891Z,46.87
2019-02-10T21:00:38.444Z,49.33
2019-02-10T21:03:14.725Z,44.97
2019-02-10T21:06:16.124Z,47.73
2019-02-10T21:09:10.221Z,47.00
2019-02-10T21:12:03.122Z,47.03
2019-02-10T21:15:03.674Z,46.20
2019-02-10T21:17:43.894Z,50.27
2019-02-10T21:20:43.947Z,47.50
2019-02-10T21:23:26.897Z,48.23
2019-02-10T21:26:06.677Z,50.20
2019-02-10T21:29:03.855Z,47.90
2019-02-10T21:31:57.665Z,44.63
2019-02-10T21:34:51.592Z,45.87
2019-02-10T21:37:48.555Z,42.23
2019-02-10T21:40:39.990Z,43.80
2019-02-10T21:43:29.534Z,41.97
2019-02-10T21:46:22.488Z,41.90
2019-02-10T21:49:05.081Z,42.40
2019-02-10T21:51:36.300Z,42.50
2019-02-10T21:54:07.464Z,44.50
2019-02-10T21:56:38.949Z,45.57
2019-02-10T21:59:09.935Z,45.00
2019-02-10T22:01:41.536Z,46.97
2019-02-10T22:04:13.486Z,46.03
2019-02-10T22:06:45.921Z,44.00
2019-02-10T22:09:18.411Z,48.03
2019-02-10T22:11:50.016Z,45.33
2019-02-10T22:14:22.599Z,44.70
2019-02-10T22:17:00.145Z,48.07
2019-02-10T22:19:32.325Z,43.77
2019-02-10T22:22:05.555Z,45.53
2019-02-10T22:24:38.956Z,44.57
2019-02-10T22:27:10.899Z,42.83
2019-02-10T22:29:42.269Z,42.53
2019-02-10T22:32:14.124Z,43.70
2019-02-10T22:34:46.204Z,49.80
2019-02-10T22:37:18.320Z,53.27
2019-02-10T22:39:49.821Z,51.50
2019-02-10T22:42:21.674Z,48.73
2019-02-10T22:44:54.220Z,52.20
2019-02-10T22:47:26.068Z,48.97
2019-02-10T22:49:58.243Z,49.73
2019-02-10T22:52:30.102Z,47.13
2019-02-10T22:55:02.198Z,47.73
2019-02-10T22:57:34.310Z,47.03
2019-02-10T23:00:11.876Z,48.07
2019-02-10T23:02:44.609Z,45.43
2019-02-10T23:05:16.942Z,44.63
2019-02-10T23:07:48.387Z,42.63
2019-02-10T23:10:21.767Z,47.47
2019-02-10T23:12:53.988Z,45.90
2019-02-10T23:15:25.895Z,44.50
2019-02-10T23:17:57.694Z,46.10
2019-02-10T23:20:29.405Z,44.80
2019-02-10T23:23:01.684Z,47.17
2019-02-10T23:25:34.329Z,48.23
2019-02-10T23:28:05.881Z,45.97
2019-02-10T23:30:38.852Z,46.33
2019-02-10T23:33:10.598Z,47.57
2019-02-10T23:35:42.695Z,45.30
2019-02-10T23:38:14.995Z,43.10
2019-02-10T23:40:46.781Z,42.67
2019-02-10T23:43:19.302Z,42.77
2019-02-10T23:45:50.822Z,41.50
2019-02-10T23:48:22.947Z,42.80
2019-02-10T23:50:54.675Z,43.70
2019-02-10T23:53:25.830Z,44.13
2019-02-10T23:55:57.418Z,40.17
2019-02-10T23:58:29.039Z,41.73
